sensor_id;sensor_type;location;lat;lon;timestamp;temperature;humidity
5200;DHT22;2619;47.868;11.892;2023-09-19T00:01:57;13.30;99.90
5200;DHT22;2619;47.868;11.892;2023-09-19T00:04:23;13.30;99.90
5200;DHT22;2619;47.868;11.892;2023-09-19T00:06:54;13.30;99.90
5200;DHT22;2619;47.868;11.892;2023-09-19T00:09:20;13.30;99.90
5200;DHT22;2619;47.868;11.892;2023-09-19T00:11:45;13.40;99.90
5200;DHT22;2619;47.868;11.892;2023-09-19T00:14:13;13.40;99.90
5200;DHT22;2619;47.868;11.892;2023-09-19T00:16:39;13.50;99.90
5200;DHT22;2619;47.868;11.892;2023-09-19T00:19:06;13.50;99.90
5200;DHT22;2619;47.868;11.892;2023-09-19T00:21:32;13.60;99.90
5200;DHT22;2619;47.868;11.892;2023-09-19T00:23:58;13.60;99.90
5200;DHT22;2619;47.868;11.892;2023-09-19T00:26:24;13.70;99.90
5200;DHT22;2619;47.868;11.892;2023-09-19T00:28:52;13.70;99.90
5200;DHT22;2619;47.868;11.892;2023-09-19T00:31:18;13.80;99.90
5200;DHT22;2619;47.868;11.892;2023-09-19T00:33:44;13.70;99.90
5200;DHT22;2619;47.868;11.892;2023-09-19T00:36:09;13.80;99.90
5200;DHT22;2619;47.868;11.892;2023-09-19T00:38:35;13.80;99.90
5200;DHT22;2619;47.868;11.892;2023-09-19T00:41:00;13.90;99.90
5200;DHT22;2619;47.868;11.892;2023-09-19T00:43:26;13.90;99.90
5200;DHT22;2619;47.868;11.892;2023-09-19T00:45:54;13.90;99.90
5200;DHT22;2619;47.868;11.892;2023-09-19T00:48:21;13.90;99.90
5200;DHT22;2619;47.868;11.892;2023-09-19T00:50:47;13.80;99.90
5200;DHT22;2619;47.868;11.892;2023-09-19T00:53:20;13.80;99.90
5200;DHT22;2619;47.868;11.892;2023-09-19T00:55:46;13.70;99.90
5200;DHT22;2619;47.868;11.892;2023-09-19T00:58:13;13.90;99.90
5200;DHT22;2619;47.868;11.892;2023-09-19T01:00:40;13.90;99.90
5200;DHT22;2619;47.868;11.892;2023-09-19T01:03:06;14.00;99.90
5200;DHT22;2619;47.868;11.892;2023-09-19T01:05:33;13.90;99.90
5200;DHT22;2619;47.868;11.892;2023-09-19T01:07:59;13.90;99.90
5200;DHT22;2619;47.868;11.892;2023-09-19T01:10:25;13.90;99.90
5200;DHT22;2619;47.868;11.892;2023-09-19T01:13:16;13.90;99.90
5200;DHT22;2619;47.868;11.892;2023-09-19T01:21:34;13.80;99.90
5200;DHT22;2619;47.868;11.892;2023-09-19T01:27:17;13.80;99.90
5200;DHT22;2619;47.868;11.892;2023-09-19T01:29:48;13.80;99.90
5200;DHT22;2619;47.868;11.892;2023-09-19T01:32:17;13.90;99.90
5200;DHT22;2619;47.868;11.892;2023-09-19T01:34:57;13.90;99.90
5200;DHT22;2619;47.868;11.892;2023-09-19T01:37:29;14.00;99.90
5200;DHT22;2619;47.868;11.892;2023-09-19T01:40:02;14.10;99.90
5200;DHT22;2619;47.868;11.892;2023-09-19T01:48:25;14.10;99.90
5200;DHT22;2619;47.868;11.892;2023-09-19T01:51:07;14.10;99.90
5200;DHT22;2619;47.868;11.892;2023-09-19T01:56:21;14.20;99.90
5200;DHT22;2619;47.868;11.892;2023-09-19T01:58:52;14.20;99.90
5200;DHT22;2619;47.868;11.892;2023-09-19T02:01:22;14.30;99.90
5200;DHT22;2619;47.868;11.892;2023-09-19T02:03:50;14.30;99.90
5200;DHT22;2619;47.868;11.892;2023-09-19T02:06:16;14.40;99.90
5200;DHT22;2619;47.868;11.892;2023-09-19T02:08:43;14.40;99.90
5200;DHT22;2619;47.868;11.892;2023-09-19T02:11:10;14.50;99.90
5200;DHT22;2619;47.868;11.892;2023-09-19T02:13:36;14.60;99.90
5200;DHT22;2619;47.868;11.892;2023-09-19T02:16:03;14.50;99.90
5200;DHT22;2619;47.868;11.892;2023-09-19T02:18:30;14.50;99.90
5200;DHT22;2619;47.868;11.892;2023-09-19T02:20:56;14.50;99.90
5200;DHT22;2619;47.868;11.892;2023-09-19T02:23:23;14.60;99.90
5200;DHT22;2619;47.868;11.892;2023-09-19T02:25:55;14.50;99.90
5200;DHT22;2619;47.868;11.892;2023-09-19T02:28:23;14.60;99.90
5200;DHT22;2619;47.868;11.892;2023-09-19T02:30:49;14.60;99.90
5200;DHT22;2619;47.868;11.892;2023-09-19T02:33:16;14.50;99.90
5200;DHT22;2619;47.868;11.892;2023-09-19T02:35:42;14.50;99.90
5200;DHT22;2619;47.868;11.892;2023-09-19T02:38:08;14.50;99.90
5200;DHT22;2619;47.868;11.892;2023-09-19T02:40:37;14.50;99.90
5200;DHT22;2619;47.868;11.892;2023-09-19T02:43:02;14.50;99.90
5200;DHT22;2619;47.868;11.892;2023-09-19T02:45:28;14.50;99.90
5200;DHT22;2619;47.868;11.892;2023-09-19T02:47:55;14.50;99.90
5200;DHT22;2619;47.868;11.892;2023-09-19T02:50:20;14.50;99.90
5200;DHT22;2619;47.868;11.892;2023-09-19T02:52:47;14.50;99.90
5200;DHT22;2619;47.868;11.892;2023-09-19T02:55:18;14.50;99.90
5200;DHT22;2619;47.868;11.892;2023-09-19T02:57:52;14.50;99.90
5200;DHT22;2619;47.868;11.892;2023-09-19T03:00:19;14.50;99.90
5200;DHT22;2619;47.868;11.892;2023-09-19T03:02:52;14.50;99.90
5200;DHT22;2619;47.868;11.892;2023-09-19T03:05:19;14.60;99.90
5200;DHT22;2619;47.868;11.892;2023-09-19T03:07:44;14.50;99.90
5200;DHT22;2619;47.868;11.892;2023-09-19T03:10:12;14.50;99.90
5200;DHT22;2619;47.868;11.892;2023-09-19T03:12:39;14.60;99.90
5200;DHT22;2619;47.868;11.892;2023-09-19T03:15:05;14.60;99.90
5200;DHT22;2619;47.868;11.892;2023-09-19T03:17:31;14.60;99.90
5200;DHT22;2619;47.868;11.892;2023-09-19T03:19:58;14.60;99.90
5200;DHT22;2619;47.868;11.892;2023-09-19T03:22:23;14.60;99.90
5200;DHT22;2619;47.868;11.892;2023-09-19T03:24:50;14.60;99.90
5200;DHT22;2619;47.868;11.892;2023-09-19T03:27:16;14.60;99.90
5200;DHT22;2619;47.868;11.892;2023-09-19T03:29:42;14.60;99.90
5200;DHT22;2619;47.868;11.892;2023-09-19T03:32:08;14.60;99.90
5200;DHT22;2619;47.868;11.892;2023-09-19T03:34:37;14.60;99.90
5200;DHT22;2619;47.868;11.892;2023-09-19T03:37:07;14.60;99.90
5200;DHT22;2619;47.868;11.892;2023-09-19T03:39:33;14.70;99.90
5200;DHT22;2619;47.868;11.892;2023-09-19T03:41:58;14.70;99.90
5200;DHT22;2619;47.868;11.892;2023-09-19T03:44:24;14.70;99.90
5200;DHT22;2619;47.868;11.892;2023-09-19T03:46:49;14.80;99.90
5200;DHT22;2619;47.868;11.892;2023-09-19T03:49:15;14.90;99.90
5200;DHT22;2619;47.868;11.892;2023-09-19T03:51:41;14.70;99.90
5200;DHT22;2619;47.868;11.892;2023-09-19T03:54:09;14.80;99.90
5200;DHT22;2619;47.868;11.892;2023-09-19T03:56:34;14.80;99.90
5200;DHT22;2619;47.868;11.892;2023-09-19T03:59:00;14.80;99.90
5200;DHT22;2619;47.868;11.892;2023-09-19T04:01:25;14.80;99.90
5200;DHT22;2619;47.868;11.892;2023-09-19T04:03:53;14.80;99.90
5200;DHT22;2619;47.868;11.892;2023-09-19T04:06:19;14.80;99.90
5200;DHT22;2619;47.868;11.892;2023-09-19T04:08:45;14.80;99.90
5200;DHT22;2619;47.868;11.892;2023-09-19T04:11:11;14.80;99.90
5200;DHT22;2619;47.868;11.892;2023-09-19T04:13:37;14.80;99.90
5200;DHT22;2619;47.868;11.892;2023-09-19T04:16:03;14.80;99.90
5200;DHT22;2619;47.868;11.892;2023-09-19T04:18:35;14.80;99.90
5200;DHT22;2619;47.868;11.892;2023-09-19T04:21:04;14.70;99.90
5200;DHT22;2619;47.868;11.892;2023-09-19T04:23:31;14.70;99.90
5200;DHT22;2619;47.868;11.892;2023-09-19T04:25:57;14.80;99.90
5200;DHT22;2619;47.868;11.892;2023-09-19T04:28:24;14.80;99.90
5200;DHT22;2619;47.868;11.892;2023-09-19T04:30:50;14.80;99.90
5200;DHT22;2619;47.868;11.892;2023-09-19T04:33:15;14.70;99.90
5200;DHT22;2619;47.868;11.892;2023-09-19T04:35:41;14.70;99.90
5200;DHT22;2619;47.868;11.892;2023-09-19T04:38:08;14.70;99.90
5200;DHT22;2619;47.868;11.892;2023-09-19T04:40:34;14.80;99.90
5200;DHT22;2619;47.868;11.892;2023-09-19T04:43:00;14.70;99.90
5200;DHT22;2619;47.868;11.892;2023-09-19T04:45:27;14.70;99.90
5200;DHT22;2619;47.868;11.892;2023-09-19T04:47:53;14.70;99.90
5200;DHT22;2619;47.868;11.892;2023-09-19T04:50:19;14.70;99.90
5200;DHT22;2619;47.868;11.892;2023-09-19T04:52:49;14.60;99.90
5200;DHT22;2619;47.868;11.892;2023-09-19T04:55:16;14.70;99.90
5200;DHT22;2619;47.868;11.892;2023-09-19T04:57:50;14.70;99.90
5200;DHT22;2619;47.868;11.892;2023-09-19T05:00:23;14.70;99.90
5200;DHT22;2619;47.868;11.892;2023-09-19T05:02:50;14.70;99.90
5200;DHT22;2619;47.868;11.892;2023-09-19T05:05:17;14.80;99.90
5200;DHT22;2619;47.868;11.892;2023-09-19T05:07:43;14.90;99.90
5200;DHT22;2619;47.868;11.892;2023-09-19T05:10:12;14.90;99.90
5200;DHT22;2619;47.868;11.892;2023-09-19T05:12:38;15.00;99.90
5200;DHT22;2619;47.868;11.892;2023-09-19T05:15:05;14.90;99.90
5200;DHT22;2619;47.868;11.892;2023-09-19T05:17:32;14.90;99.90
5200;DHT22;2619;47.868;11.892;2023-09-19T05:19:58;14.90;99.90
5200;DHT22;2619;47.868;11.892;2023-09-19T05:22:26;15.00;99.90
5200;DHT22;2619;47.868;11.892;2023-09-19T05:24:52;15.00;99.90
5200;DHT22;2619;47.868;11.892;2023-09-19T05:27:18;15.00;99.90
5200;DHT22;2619;47.868;11.892;2023-09-19T05:29:46;15.00;99.90
5200;DHT22;2619;47.868;11.892;2023-09-19T05:32:12;15.10;99.90
5200;DHT22;2619;47.868;11.892;2023-09-19T05:34:38;15.20;99.90
5200;DHT22;2619;47.868;11.892;2023-09-19T05:37:04;15.30;99.90
5200;DHT22;2619;47.868;11.892;2023-09-19T05:39:33;15.30;99.90
5200;DHT22;2619;47.868;11.892;2023-09-19T05:41:58;15.40;99.90
5200;DHT22;2619;47.868;11.892;2023-09-19T05:44:25;15.40;99.90
5200;DHT22;2619;47.868;11.892;2023-09-19T05:46:51;15.40;99.90
5200;DHT22;2619;47.868;11.892;2023-09-19T05:49:17;15.50;99.90
5200;DHT22;2619;47.868;11.892;2023-09-19T05:51:43;15.50;99.90
5200;DHT22;2619;47.868;11.892;2023-09-19T05:54:08;15.60;99.90
5200;DHT22;2619;47.868;11.892;2023-09-19T05:56:34;15.70;99.90
5200;DHT22;2619;47.868;11.892;2023-09-19T05:59:00;15.90;99.90
5200;DHT22;2619;47.868;11.892;2023-09-19T06:01:25;16.00;99.90
5200;DHT22;2619;47.868;11.892;2023-09-19T06:03:51;16.10;99.90
5200;DHT22;2619;47.868;11.892;2023-09-19T06:06:18;16.10;99.90
5200;DHT22;2619;47.868;11.892;2023-09-19T06:08:44;16.20;99.90
5200;DHT22;2619;47.868;11.892;2023-09-19T06:11:10;16.20;99.90
5200;DHT22;2619;47.868;11.892;2023-09-19T06:13:36;16.20;99.90
5200;DHT22;2619;47.868;11.892;2023-09-19T06:16:04;16.30;99.90
5200;DHT22;2619;47.868;11.892;2023-09-19T06:18:31;16.30;99.90
5200;DHT22;2619;47.868;11.892;2023-09-19T06:20:59;16.50;99.90
5200;DHT22;2619;47.868;11.892;2023-09-19T06:23:25;16.50;99.90
5200;DHT22;2619;47.868;11.892;2023-09-19T06:25:52;16.50;99.90
5200;DHT22;2619;47.868;11.892;2023-09-19T06:28:21;16.60;99.90
5200;DHT22;2619;47.868;11.892;2023-09-19T06:30:51;16.70;99.90
5200;DHT22;2619;47.868;11.892;2023-09-19T06:33:17;16.60;99.90
5200;DHT22;2619;47.868;11.892;2023-09-19T06:35:43;16.70;99.90
5200;DHT22;2619;47.868;11.892;2023-09-19T06:38:10;16.80;99.90
5200;DHT22;2619;47.868;11.892;2023-09-19T06:40:36;16.80;99.90
5200;DHT22;2619;47.868;11.892;2023-09-19T06:43:02;17.10;99.90
5200;DHT22;2619;47.868;11.892;2023-09-19T06:45:29;17.10;99.90
5200;DHT22;2619;47.868;11.892;2023-09-19T06:47:54;17.20;99.90
5200;DHT22;2619;47.868;11.892;2023-09-19T06:50:23;17.40;99.90
5200;DHT22;2619;47.868;11.892;2023-09-19T06:52:50;17.50;99.90
5200;DHT22;2619;47.868;11.892;2023-09-19T06:55:17;17.60;99.90
5200;DHT22;2619;47.868;11.892;2023-09-19T06:57:48;17.50;99.90
5200;DHT22;2619;47.868;11.892;2023-09-19T07:00:14;17.60;99.90
5200;DHT22;2619;47.868;11.892;2023-09-19T07:03:03;17.80;99.90
5200;DHT22;2619;47.868;11.892;2023-09-19T07:05:37;18.00;99.90
5200;DHT22;2619;47.868;11.892;2023-09-19T07:08:07;18.20;99.90
5200;DHT22;2619;47.868;11.892;2023-09-19T07:10:33;18.50;99.90
5200;DHT22;2619;47.868;11.892;2023-09-19T07:13:04;18.60;99.90
5200;DHT22;2619;47.868;11.892;2023-09-19T07:15:32;18.60;99.90
5200;DHT22;2619;47.868;11.892;2023-09-19T07:18:01;18.60;99.90
5200;DHT22;2619;47.868;11.892;2023-09-19T07:20:27;18.90;99.90
5200;DHT22;2619;47.868;11.892;2023-09-19T07:22:54;18.80;99.90
5200;DHT22;2619;47.868;11.892;2023-09-19T07:25:25;18.90;99.90
5200;DHT22;2619;47.868;11.892;2023-09-19T07:27:51;19.00;99.90
5200;DHT22;2619;47.868;11.892;2023-09-19T07:30:16;19.10;99.90
5200;DHT22;2619;47.868;11.892;2023-09-19T07:32:42;19.20;99.90
5200;DHT22;2619;47.868;11.892;2023-09-19T07:35:07;19.30;99.90
5200;DHT22;2619;47.868;11.892;2023-09-19T07:37:34;19.30;99.90
5200;DHT22;2619;47.868;11.892;2023-09-19T07:40:00;19.50;99.90
5200;DHT22;2619;47.868;11.892;2023-09-19T07:42:26;19.60;99.90
5200;DHT22;2619;47.868;11.892;2023-09-19T07:44:52;19.70;99.90
5200;DHT22;2619;47.868;11.892;2023-09-19T07:47:20;19.50;99.90
5200;DHT22;2619;47.868;11.892;2023-09-19T07:49:47;19.60;99.90
5200;DHT22;2619;47.868;11.892;2023-09-19T07:52:13;19.50;99.90
5200;DHT22;2619;47.868;11.892;2023-09-19T07:54:39;19.40;99.90
5200;DHT22;2619;47.868;11.892;2023-09-19T07:57:07;19.30;99.90
5200;DHT22;2619;47.868;11.892;2023-09-19T07:59:32;19.30;99.90
5200;DHT22;2619;47.868;11.892;2023-09-19T08:01:58;19.50;99.90
5200;DHT22;2619;47.868;11.892;2023-09-19T08:04:24;19.80;99.90
5200;DHT22;2619;47.868;11.892;2023-09-19T08:06:51;20.00;99.90
5200;DHT22;2619;47.868;11.892;2023-09-19T08:09:17;20.40;99.90
5200;DHT22;2619;47.868;11.892;2023-09-19T08:11:46;20.70;99.90
5200;DHT22;2619;47.868;11.892;2023-09-19T08:14:12;20.60;99.90
5200;DHT22;2619;47.868;11.892;2023-09-19T08:16:40;20.60;99.90
5200;DHT22;2619;47.868;11.892;2023-09-19T08:19:05;20.60;99.90
5200;DHT22;2619;47.868;11.892;2023-09-19T08:21:31;20.50;99.90
5200;DHT22;2619;47.868;11.892;2023-09-19T08:23:57;20.60;99.90
5200;DHT22;2619;47.868;11.892;2023-09-19T08:26:23;20.60;99.90
5200;DHT22;2619;47.868;11.892;2023-09-19T08:28:49;20.70;99.90
5200;DHT22;2619;47.868;11.892;2023-09-19T08:31:16;20.90;99.90
5200;DHT22;2619;47.868;11.892;2023-09-19T08:33:43;21.00;99.90
5200;DHT22;2619;47.868;11.892;2023-09-19T08:36:14;21.30;99.90
5200;DHT22;2619;47.868;11.892;2023-09-19T08:38:40;21.40;99.90
5200;DHT22;2619;47.868;11.892;2023-09-19T08:41:07;21.30;99.90
5200;DHT22;2619;47.868;11.892;2023-09-19T08:43:34;21.20;99.90
5200;DHT22;2619;47.868;11.892;2023-09-19T08:46:26;21.20;99.90
5200;DHT22;2619;47.868;11.892;2023-09-19T08:49:03;21.20;99.90
5200;DHT22;2619;47.868;11.892;2023-09-19T08:51:42;21.10;99.90
5200;DHT22;2619;47.868;11.892;2023-09-19T08:54:25;21.10;99.90
5200;DHT22;2619;47.868;11.892;2023-09-19T08:56:54;21.10;99.90
5200;DHT22;2619;47.868;11.892;2023-09-19T08:59:22;21.10;99.90
5200;DHT22;2619;47.868;11.892;2023-09-19T09:01:49;21.00;99.90
5200;DHT22;2619;47.868;11.892;2023-09-19T09:04:19;21.00;99.90
5200;DHT22;2619;47.868;11.892;2023-09-19T09:06:45;21.10;99.90
5200;DHT22;2619;47.868;11.892;2023-09-19T09:09:15;21.20;99.90
5200;DHT22;2619;47.868;11.892;2023-09-19T09:11:40;21.30;99.90
5200;DHT22;2619;47.868;11.892;2023-09-19T09:14:06;21.30;99.90
5200;DHT22;2619;47.868;11.892;2023-09-19T09:16:35;21.20;99.90
5200;DHT22;2619;47.868;11.892;2023-09-19T09:19:00;21.10;99.90
5200;DHT22;2619;47.868;11.892;2023-09-19T09:21:27;20.90;99.90
5200;DHT22;2619;47.868;11.892;2023-09-19T09:23:54;20.90;99.90
5200;DHT22;2619;47.868;11.892;2023-09-19T09:26:40;21.00;99.90
5200;DHT22;2619;47.868;11.892;2023-09-19T09:29:06;21.20;99.90
5200;DHT22;2619;47.868;11.892;2023-09-19T09:31:32;21.40;99.90
5200;DHT22;2619;47.868;11.892;2023-09-19T09:33:57;21.40;99.90
5200;DHT22;2619;47.868;11.892;2023-09-19T09:36:39;21.30;99.90
5200;DHT22;2619;47.868;11.892;2023-09-19T09:39:07;21.50;99.90
5200;DHT22;2619;47.868;11.892;2023-09-19T09:41:50;21.70;99.90
5200;DHT22;2619;47.868;11.892;2023-09-19T09:44:17;21.90;99.90
5200;DHT22;2619;47.868;11.892;2023-09-19T09:46:47;22.00;99.90
5200;DHT22;2619;47.868;11.892;2023-09-19T09:49:23;22.30;99.90
5200;DHT22;2619;47.868;11.892;2023-09-19T09:52:03;22.50;99.90
5200;DHT22;2619;47.868;11.892;2023-09-19T09:54:34;22.50;99.90
5200;DHT22;2619;47.868;11.892;2023-09-19T09:57:10;22.80;99.90
5200;DHT22;2619;47.868;11.892;2023-09-19T09:59:56;22.80;99.90
5200;DHT22;2619;47.868;11.892;2023-09-19T10:02:41;22.50;99.90
5200;DHT22;2619;47.868;11.892;2023-09-19T10:05:18;22.40;99.90
5200;DHT22;2619;47.868;11.892;2023-09-19T10:07:54;22.40;99.90
5200;DHT22;2619;47.868;11.892;2023-09-19T10:10:32;22.30;99.90
5200;DHT22;2619;47.868;11.892;2023-09-19T10:13:05;22.70;99.90
5200;DHT22;2619;47.868;11.892;2023-09-19T10:15:33;23.40;99.90
5200;DHT22;2619;47.868;11.892;2023-09-19T10:18:01;24.10;99.90
5200;DHT22;2619;47.868;11.892;2023-09-19T10:20:30;24.10;99.90
5200;DHT22;2619;47.868;11.892;2023-09-19T10:22:56;23.60;99.90
5200;DHT22;2619;47.868;11.892;2023-09-19T10:25:27;23.20;99.90
5200;DHT22;2619;47.868;11.892;2023-09-19T10:28:00;23.10;99.90
5200;DHT22;2619;47.868;11.892;2023-09-19T10:30:29;23.00;99.90
5200;DHT22;2619;47.868;11.892;2023-09-19T10:33:03;23.20;99.90
5200;DHT22;2619;47.868;11.892;2023-09-19T10:35:29;23.50;99.90
5200;DHT22;2619;47.868;11.892;2023-09-19T10:38:02;23.70;99.90
5200;DHT22;2619;47.868;11.892;2023-09-19T10:40:29;23.90;99.90
5200;DHT22;2619;47.868;11.892;2023-09-19T10:43:03;23.90;99.90
5200;DHT22;2619;47.868;11.892;2023-09-19T10:45:34;23.70;99.90
5200;DHT22;2619;47.868;11.892;2023-09-19T10:48:00;23.40;99.90
5200;DHT22;2619;47.868;11.892;2023-09-19T10:56:36;22.80;99.90
5200;DHT22;2619;47.868;11.892;2023-09-19T10:59:10;22.40;99.90
5200;DHT22;2619;47.868;11.892;2023-09-19T11:04:33;22.50;99.90
5200;DHT22;2619;47.868;11.892;2023-09-19T11:07:06;22.40;99.90
5200;DHT22;2619;47.868;11.892;2023-09-19T11:09:54;22.40;99.90
5200;DHT22;2619;47.868;11.892;2023-09-19T11:15:02;22.40;99.90
5200;DHT22;2619;47.868;11.892;2023-09-19T11:17:41;22.60;99.90
5200;DHT22;2619;47.868;11.892;2023-09-19T11:30:48;22.10;99.90
5200;DHT22;2619;47.868;11.892;2023-09-19T11:33:34;22.10;99.90
5200;DHT22;2619;47.868;11.892;2023-09-19T11:36:09;22.40;99.90
5200;DHT22;2619;47.868;11.892;2023-09-19T11:49:26;24.20;99.90
5200;DHT22;2619;47.868;11.892;2023-09-19T11:51:56;24.00;99.90
5200;DHT22;2619;47.868;11.892;2023-09-19T11:54:22;24.20;99.90
5200;DHT22;2619;47.868;11.892;2023-09-19T11:56:51;24.50;99.90
5200;DHT22;2619;47.868;11.892;2023-09-19T11:59:38;24.80;99.90
5200;DHT22;2619;47.868;11.892;2023-09-19T12:02:05;24.80;99.90
5200;DHT22;2619;47.868;11.892;2023-09-19T12:04:42;24.80;99.90
5200;DHT22;2619;47.868;11.892;2023-09-19T12:07:14;24.60;99.90
5200;DHT22;2619;47.868;11.892;2023-09-19T12:09:48;24.50;99.90
5200;DHT22;2619;47.868;11.892;2023-09-19T12:12:23;24.30;99.90
5200;DHT22;2619;47.868;11.892;2023-09-19T12:14:49;24.10;99.90
5200;DHT22;2619;47.868;11.892;2023-09-19T12:17:18;23.80;99.90
5200;DHT22;2619;47.868;11.892;2023-09-19T12:19:56;23.70;99.90
5200;DHT22;2619;47.868;11.892;2023-09-19T12:22:22;23.80;99.90
5200;DHT22;2619;47.868;11.892;2023-09-19T12:24:47;23.80;99.90
5200;DHT22;2619;47.868;11.892;2023-09-19T12:27:14;23.70;99.90
5200;DHT22;2619;47.868;11.892;2023-09-19T12:29:44;23.80;99.90
5200;DHT22;2619;47.868;11.892;2023-09-19T12:32:10;23.70;99.90
5200;DHT22;2619;47.868;11.892;2023-09-19T12:34:36;23.60;99.90
5200;DHT22;2619;47.868;11.892;2023-09-19T12:39:45;23.50;99.90
5200;DHT22;2619;47.868;11.892;2023-09-19T12:42:23;23.40;99.90
5200;DHT22;2619;47.868;11.892;2023-09-19T12:44:52;23.60;99.90
5200;DHT22;2619;47.868;11.892;2023-09-19T12:47:22;23.60;99.90
5200;DHT22;2619;47.868;11.892;2023-09-19T12:50:12;23.30;99.90
5200;DHT22;2619;47.868;11.892;2023-09-19T12:52:49;23.20;99.90
5200;DHT22;2619;47.868;11.892;2023-09-19T12:55:29;23.30;99.90
5200;DHT22;2619;47.868;11.892;2023-09-19T13:00:35;23.10;99.90
5200;DHT22;2619;47.868;11.892;2023-09-19T13:03:26;23.10;99.90
5200;DHT22;2619;47.868;11.892;2023-09-19T13:06:02;23.20;99.90
5200;DHT22;2619;47.868;11.892;2023-09-19T13:08:34;23.40;99.90
5200;DHT22;2619;47.868;11.892;2023-09-19T13:16:31;23.50;99.90
5200;DHT22;2619;47.868;11.892;2023-09-19T13:18:56;23.30;99.90
5200;DHT22;2619;47.868;11.892;2023-09-19T13:21:32;23.40;99.90
5200;DHT22;2619;47.868;11.892;2023-09-19T13:24:24;23.30;99.90
5200;DHT22;2619;47.868;11.892;2023-09-19T13:26:54;23.30;99.90
5200;DHT22;2619;47.868;11.892;2023-09-19T13:29:19;23.30;99.90
5200;DHT22;2619;47.868;11.892;2023-09-19T13:31:49;23.10;99.90
5200;DHT22;2619;47.868;11.892;2023-09-19T13:34:15;23.20;99.90
5200;DHT22;2619;47.868;11.892;2023-09-19T13:36:43;23.20;99.90
5200;DHT22;2619;47.868;11.892;2023-09-19T13:39:08;23.20;99.90
5200;DHT22;2619;47.868;11.892;2023-09-19T13:41:35;23.20;99.90
5200;DHT22;2619;47.868;11.892;2023-09-19T13:44:02;23.30;99.90
5200;DHT22;2619;47.868;11.892;2023-09-19T13:46:28;23.20;99.90
5200;DHT22;2619;47.868;11.892;2023-09-19T13:48:54;23.10;99.90
5200;DHT22;2619;47.868;11.892;2023-09-19T13:51:20;23.10;99.90
5200;DHT22;2619;47.868;11.892;2023-09-19T13:53:50;23.00;99.90
5200;DHT22;2619;47.868;11.892;2023-09-19T13:56:16;23.00;99.90
5200;DHT22;2619;47.868;11.892;2023-09-19T13:58:41;23.00;99.90
5200;DHT22;2619;47.868;11.892;2023-09-19T14:01:08;23.10;99.90
5200;DHT22;2619;47.868;11.892;2023-09-19T14:03:41;23.00;99.90
5200;DHT22;2619;47.868;11.892;2023-09-19T14:06:17;23.10;99.90
5200;DHT22;2619;47.868;11.892;2023-09-19T14:08:44;23.10;99.90
5200;DHT22;2619;47.868;11.892;2023-09-19T14:11:13;22.90;99.90
5200;DHT22;2619;47.868;11.892;2023-09-19T14:13:39;22.70;99.90
5200;DHT22;2619;47.868;11.892;2023-09-19T14:16:06;22.70;99.90
5200;DHT22;2619;47.868;11.892;2023-09-19T14:18:32;22.60;99.90
5200;DHT22;2619;47.868;11.892;2023-09-19T14:21:01;22.60;99.90
5200;DHT22;2619;47.868;11.892;2023-09-19T14:23:28;22.50;99.90
5200;DHT22;2619;47.868;11.892;2023-09-19T14:25:54;22.40;99.90
5200;DHT22;2619;47.868;11.892;2023-09-19T14:28:19;22.30;99.90
5200;DHT22;2619;47.868;11.892;2023-09-19T14:30:45;22.20;99.90
5200;DHT22;2619;47.868;11.892;2023-09-19T14:33:11;22.20;99.90
5200;DHT22;2619;47.868;11.892;2023-09-19T14:35:37;22.30;99.90
5200;DHT22;2619;47.868;11.892;2023-09-19T14:38:04;22.30;99.90
5200;DHT22;2619;47.868;11.892;2023-09-19T14:40:29;22.40;99.90
5200;DHT22;2619;47.868;11.892;2023-09-19T14:42:56;22.50;99.90
5200;DHT22;2619;47.868;11.892;2023-09-19T14:45:22;22.50;99.90
5200;DHT22;2619;47.868;11.892;2023-09-19T14:47:48;22.60;99.90
5200;DHT22;2619;47.868;11.892;2023-09-19T14:50:14;22.50;99.90
5200;DHT22;2619;47.868;11.892;2023-09-19T14:52:40;22.40;99.90
5200;DHT22;2619;47.868;11.892;2023-09-19T14:55:07;22.40;99.90
5200;DHT22;2619;47.868;11.892;2023-09-19T14:57:34;22.20;99.90
5200;DHT22;2619;47.868;11.892;2023-09-19T15:00:00;22.10;99.90
5200;DHT22;2619;47.868;11.892;2023-09-19T15:02:26;22.10;99.90
5200;DHT22;2619;47.868;11.892;2023-09-19T15:04:52;22.00;99.90
5200;DHT22;2619;47.868;11.892;2023-09-19T15:07:18;21.80;99.90
5200;DHT22;2619;47.868;11.892;2023-09-19T15:09:43;21.70;99.90
5200;DHT22;2619;47.868;11.892;2023-09-19T15:12:09;21.60;99.90
5200;DHT22;2619;47.868;11.892;2023-09-19T15:14:40;21.50;99.90
5200;DHT22;2619;47.868;11.892;2023-09-19T15:17:07;21.50;99.90
5200;DHT22;2619;47.868;11.892;2023-09-19T15:19:32;21.50;99.90
5200;DHT22;2619;47.868;11.892;2023-09-19T15:21:58;21.40;99.90
5200;DHT22;2619;47.868;11.892;2023-09-19T15:24:23;21.40;99.90
5200;DHT22;2619;47.868;11.892;2023-09-19T15:26:52;21.10;99.90
5200;DHT22;2619;47.868;11.892;2023-09-19T15:29:17;21.00;99.90
5200;DHT22;2619;47.868;11.892;2023-09-19T15:31:43;21.00;99.90
5200;DHT22;2619;47.868;11.892;2023-09-19T15:34:09;20.90;99.90
5200;DHT22;2619;47.868;11.892;2023-09-19T15:36:34;20.80;99.90
5200;DHT22;2619;47.868;11.892;2023-09-19T15:39:04;20.80;99.90
5200;DHT22;2619;47.868;11.892;2023-09-19T15:41:33;20.70;99.90
5200;DHT22;2619;47.868;11.892;2023-09-19T15:44:01;20.60;99.90
5200;DHT22;2619;47.868;11.892;2023-09-19T15:46:27;20.60;99.90
5200;DHT22;2619;47.868;11.892;2023-09-19T15:48:55;20.50;99.90
5200;DHT22;2619;47.868;11.892;2023-09-19T15:51:20;20.40;99.90
5200;DHT22;2619;47.868;11.892;2023-09-19T15:53:50;20.30;99.90
5200;DHT22;2619;47.868;11.892;2023-09-19T15:56:17;20.20;99.90
5200;DHT22;2619;47.868;11.892;2023-09-19T15:58:47;20.10;99.90
5200;DHT22;2619;47.868;11.892;2023-09-19T16:01:13;19.90;99.90
5200;DHT22;2619;47.868;11.892;2023-09-19T16:03:42;19.80;99.90
5200;DHT22;2619;47.868;11.892;2023-09-19T16:06:20;19.70;99.90
5200;DHT22;2619;47.868;11.892;2023-09-19T16:08:50;19.60;99.90
5200;DHT22;2619;47.868;11.892;2023-09-19T16:11:17;19.50;99.90
5200;DHT22;2619;47.868;11.892;2023-09-19T16:13:43;19.40;99.90
5200;DHT22;2619;47.868;11.892;2023-09-19T16:16:11;19.30;99.90
5200;DHT22;2619;47.868;11.892;2023-09-19T16:18:39;19.20;99.90
5200;DHT22;2619;47.868;11.892;2023-09-19T16:21:05;19.10;99.90
5200;DHT22;2619;47.868;11.892;2023-09-19T16:23:33;19.00;99.90
5200;DHT22;2619;47.868;11.892;2023-09-19T16:26:08;18.90;99.90
5200;DHT22;2619;47.868;11.892;2023-09-19T16:28:35;18.70;99.90
5200;DHT22;2619;47.868;11.892;2023-09-19T16:31:03;18.60;99.90
5200;DHT22;2619;47.868;11.892;2023-09-19T16:33:35;18.50;99.90
5200;DHT22;2619;47.868;11.892;2023-09-19T16:36:02;18.40;99.90
5200;DHT22;2619;47.868;11.892;2023-09-19T16:38:32;18.30;99.90
5200;DHT22;2619;47.868;11.892;2023-09-19T16:40:58;18.20;99.90
5200;DHT22;2619;47.868;11.892;2023-09-19T16:43:25;18.10;99.90
5200;DHT22;2619;47.868;11.892;2023-09-19T16:48:21;17.90;99.90
5200;DHT22;2619;47.868;11.892;2023-09-19T16:50:51;17.80;99.90
5200;DHT22;2619;47.868;11.892;2023-09-19T16:53:17;17.70;99.90
5200;DHT22;2619;47.868;11.892;2023-09-19T16:55:47;17.60;99.90
5200;DHT22;2619;47.868;11.892;2023-09-19T16:58:16;17.40;99.90